Terminal Aerodrome Forecast
Issued by NWS

Home | Current Version | Previous Version | Text Only | Print | Product List | Glossary On
Versions: 1 2 3 4 5 6 7 8 9 10 11 12 13 14 15 16 17
000
FTAK31 PAJN 171124
TAFAKT
TAF
PAKT 171124Z 1712/1812 VRB05KT P6SM VCSH BKN035
      TEMPO 1712/1715 SCT025
     FM180500 14012G20KT P6SM -RA OVC035 WS020/15035KT
     FM181000 14019G27KT P6SM -RA SCT015 OVC025 WS020/15045KT
      AMD LTD TO CLD VIS AND WIND 1712/1715=

USA.gov is the U.S. government's official web portal to all federal, state and local government web resources and services.